Time;durP1;ratioP1;P1;durP2;ratioP2;P2;SDS_P1;SDS_P2;PMS_P1;PMS_P2;Temp;Humidity;BMP_temperature;BMP_pressure;BME280_temperature;BME280_humidity;BME280_pressure;Samples;Min_cycle;Max_cycle;Signal;HPM_P1;HPM_P2
2024/01/29 00:00:21;;;;;;;;;;;;;;;;;;;;;
2024/01/29 00:02:49;;;;;;;13.07;5.80;;;;;;;2.51;97.27;96146.66;6216471;23;20079;-93
2024/01/29 00:05:15;;;;;;;13.73;5.40;;;;;;;2.34;97.33;96140.78;6216752;23;20054;-92
2024/01/29 00:07:42;;;;;;;14.23;6.07;;;;;;;2.25;99.10;96140.00;6191672;23;20000;-93
2024/01/29 00:10:08;;;;;;;14.32;6.38;;;;;;;2.29;100.00;96145.63;6191661;23;20012;-94
2024/01/29 00:12:34;;;;;;;17.27;6.72;;;;;;;2.38;98.71;96144.63;6216260;23;20086;-92
2024/01/29 00:15:11;;;;;;;12.32;6.10;;;;;;;2.42;98.60;96146.84;6191826;23;20314;-93
2024/01/29 00:17:37;;;;;;;12.88;5.05;;;;;;;2.31;100.00;96145.47;6193542;23;20095;-93
2024/01/29 00:20:12;;;;;;;;;;;;;;;;;;;;;
2024/01/29 00:22:40;;;;;;;14.57;5.25;;;;;;;2.21;100.00;96145.69;6216597;23;20075;-94
2024/01/29 00:25:07;;;;;;;9.70;4.50;;;;;;;2.32;99.78;96142.72;6191822;23;20060;-93
2024/01/29 00:27:33;;;;;;;11.65;4.63;;;;;;;2.30;99.26;96144.69;6216051;23;20007;-93
2024/01/29 00:30:01;;;;;;;9.50;4.30;;;;;;;2.29;97.64;96143.03;6191694;23;20004;-95
2024/01/29 00:32:34;;;;;;;13.77;4.50;;;;;;;2.19;98.09;96142.47;6192171;23;20406;-93
2024/01/29 00:34:59;;;;;;;7.78;3.72;;;;;;;2.20;98.37;96139.69;6193533;23;19997;-93
2024/01/29 00:37:26;;;;;;;10.85;4.35;;;;;;;2.16;98.64;96140.25;6216058;23;20023;-93
2024/01/29 00:39:55;;;;;;;8.25;3.92;;;;;;;2.07;100.00;96140.28;6191456;23;20348;-93
2024/01/29 00:42:20;;;;;;;8.20;3.78;;;;;;;2.11;98.31;96145.91;6192350;23;20437;-93
2024/01/29 00:44:49;;;;;;;13.57;4.80;;;;;;;2.14;97.75;96139.56;6218298;23;19997;-93
2024/01/29 00:47:27;;;;;;;;;;;;;;;;;;;;;
2024/01/29 00:49:53;;;;;;;8.48;4.32;;;;;;;2.06;98.76;96136.06;6216508;23;20044;-93
2024/01/29 00:52:19;;;;;;;7.30;3.53;;;;;;;2.09;98.99;96140.91;6216669;23;20015;-93
2024/01/29 00:54:54;;;;;;;;;;;;;;;;;;;;;
2024/01/29 00:57:22;;;;;;;8.15;3.72;;;;;;;2.22;98.30;96136.97;6216294;23;20024;-92
2024/01/29 00:59:55;;;;;;;9.88;3.80;;;;;;;2.08;99.16;96139.28;6216458;23;20000;-93
2024/01/29 01:02:21;;;;;;;9.35;3.85;;;;;;;2.05;99.99;96141.41;6192269;23;20003;-93
2024/01/29 01:04:56;;;;;;;;;;;;;;;;;;;;;
2024/01/29 01:07:24;;;;;;;8.60;3.90;;;;;;;2.08;98.87;96147.03;6216346;23;20067;-92
2024/01/29 01:09:50;;;;;;;7.53;3.00;;;;;;;2.01;99.98;96140.13;6191783;23;20024;-93
2024/01/29 01:12:25;;;;;;;;;;;;;;;;;;;;;
2024/01/29 01:14:53;;;;;;;7.38;3.38;;;;;;;1.72;100.00;96147.50;6216237;23;20061;-92
2024/01/29 01:17:21;;;;;;;8.90;3.72;;;;;;;1.82;100.00;96142.16;6216168;23;20001;-93
2024/01/29 01:19:51;;;;;;;8.55;3.13;;;;;;;1.88;100.00;96141.47;6216407;23;20095;-93
2024/01/29 01:22:16;;;;;;;8.00;3.58;;;;;;;1.98;100.00;96142.09;6219202;23;20406;-92
2024/01/29 01:24:44;;;;;;;8.27;3.40;;;;;;;1.86;100.00;96142.59;6218123;23;19997;-93
2024/01/29 01:27:19;;;;;;;;;;;;;;;;;;;;;
2024/01/29 01:29:52;;;;;;;6.93;3.30;;;;;;;1.97;99.61;96142.25;6217810;23;20075;-93
2024/01/29 01:32:20;;;;;;;9.75;3.40;;;;;;;1.94;100.00;96140.00;6194226;23;20008;-93
2024/01/29 01:34:47;;;;;;;7.68;3.28;;;;;;;2.05;100.00;96139.63;6193546;23;20004;-92
2024/01/29 01:37:13;;;;;;;8.02;3.22;;;;;;;2.05;99.86;96149.16;6193519;23;19997;-92
2024/01/29 01:39:42;;;;;;;7.07;3.25;;;;;;;1.92;100.00;96140.16;6193090;23;20000;-93
2024/01/29 01:42:10;;;;;;;7.95;3.03;;;;;;;1.72;100.00;96144.13;6193572;23;20055;-93
2024/01/29 01:44:35;;;;;;;6.97;3.13;;;;;;;2.00;100.00;96146.28;6193242;23;19993;-93
2024/01/29 01:47:03;;;;;;;10.18;3.75;;;;;;;1.94;100.00;96155.50;6193376;23;20295;-92
2024/01/29 01:49:29;;;;;;;12.50;5.13;;;;;;;1.79;100.00;96150.22;6193136;23;20004;-92
2024/01/29 01:51:58;;;;;;;12.32;4.45;;;;;;;1.65;100.00;96157.72;6217414;23;20042;-92
2024/01/29 01:54:26;;;;;;;10.93;4.97;;;;;;;1.59;100.00;96153.22;6192422;23;20046;-93
2024/01/29 01:57:02;;;;;;;;;;;;;;;;;;;;;
2024/01/29 01:59:28;;;;;;;13.73;5.07;;;;;;;1.61;100.00;96142.72;6217785;23;20021;-93
2024/01/29 02:02:05;;;;;;;;;;;;;;;;;;;;;
2024/01/29 02:04:30;;;;;;;11.50;4.85;;;;;;;1.72;100.00;96139.75;6217697;23;20083;-93
2024/01/29 02:07:04;;;;;;;9.02;3.75;;;;;;;1.68;100.00;96134.13;6193064;23;20268;-93
2024/01/29 02:09:32;;;;;;;11.32;4.88;;;;;;;1.76;100.00;96137.66;6194606;23;20449;-93
2024/01/29 02:12:01;;;;;;;9.27;3.88;;;;;;;1.89;100.00;96140.50;6192929;23;20319;-93
2024/01/29 02:14:27;;;;;;;10.57;4.57;;;;;;;1.67;100.00;96129.13;6193467;23;20004;-93
2024/01/29 02:16:52;;;;;;;9.77;3.33;;;;;;;1.67;100.00;96135.13;6192840;23;20318;-92
2024/01/29 02:19:18;;;;;;;12.38;4.45;;;;;;;1.70;100.00;96133.94;6192414;23;20007;-92
2024/01/29 02:21:46;;;;;;;9.63;4.40;;;;;;;1.70;100.00;96136.53;6192976;23;19993;-93
2024/01/29 02:24:12;;;;;;;12.02;4.63;;;;;;;1.67;100.00;96134.28;6192831;23;20019;-94
2024/01/29 02:26:47;;;;;;;;;;;;;;;;;;;;;
2024/01/29 02:29:14;;;;;;;11.60;4.50;;;;;;;1.64;100.00;96126.88;6217201;23;20049;-93
2024/01/29 02:31:42;;;;;;;10.15;4.25;;;;;;;1.68;100.00;96113.47;6191950;23;20469;-92
2024/01/29 02:34:15;;;;;;;10.07;4.35;;;;;;;1.74;100.00;96122.31;6192519;23;20023;-93
2024/01/29 02:36:41;;;;;;;11.65;4.03;;;;;;;1.80;100.00;96121.66;6193798;23;20354;-93
2024/01/29 02:39:08;;;;;;;9.15;4.25;;;;;;;1.65;100.00;96125.91;6192138;23;20011;-93
2024/01/29 02:41:35;;;;;;;12.60;4.60;;;;;;;1.75;100.00;96117.94;6217434;23;20457;-93
2024/01/29 02:44:03;;;;;;;12.18;4.95;;;;;;;1.77;100.00;96116.81;6192853;23;20008;-93
2024/01/29 02:46:30;;;;;;;10.10;4.95;;;;;;;1.65;100.00;96111.22;6192590;23;20003;-93
2024/01/29 02:48:58;;;;;;;10.20;4.78;;;;;;;1.73;100.00;96112.16;6192781;23;20306;-93
2024/01/29 02:51:24;;;;;;;13.88;5.85;;;;;;;1.72;100.00;96106.16;6192962;23;20016;-93
2024/01/29 02:53:49;;;;;;;12.38;5.95;;;;;;;1.53;100.00;96115.94;6192592;23;20005;-92
2024/01/29 02:56:14;;;;;;;17.25;5.65;;;;;;;1.46;100.00;96114.19;6191814;23;20011;-92
2024/01/29 02:58:44;;;;;;;16.67;5.82;;;;;;;1.67;100.00;96104.09;6192220;23;20000;-93
2024/01/29 03:01:11;;;;;;;14.57;5.93;;;;;;;1.77;100.00;96111.66;6192726;23;19996;-93
2024/01/29 03:03:49;;;;;;;16.33;5.82;;;;;;;1.73;100.00;96107.78;6192957;23;20124;-92
2024/01/29 03:06:17;;;;;;;15.02;6.70;;;;;;;1.65;100.00;96105.22;6192624;23;20006;-92
2024/01/29 03:08:46;;;;;;;16.00;7.28;;;;;;;1.64;100.00;96104.41;6192688;23;20001;-93
2024/01/29 03:11:21;;;;;;;19.95;6.63;;;;;;;1.71;100.00;96106.34;6192174;23;20354;-92
2024/01/29 03:13:47;;;;;;;13.68;5.93;;;;;;;1.50;100.00;96105.94;6216936;23;20315;-92
2024/01/29 03:16:20;;;;;;;14.25;5.65;;;;;;;1.54;100.00;96107.19;6192160;23;20083;-93
2024/01/29 03:18:45;;;;;;;13.85;5.85;;;;;;;1.39;100.00;96109.69;6193009;23;20000;-93
2024/01/29 03:21:13;;;;;;;16.60;6.32;;;;;;;1.26;100.00;96104.22;6192289;23;20414;-91
2024/01/29 03:23:40;;;;;;;12.95;5.65;;;;;;;1.19;100.00;96108.44;6192399;23;20004;-92
2024/01/29 03:26:06;;;;;;;12.85;5.72;;;;;;;1.19;100.00;96101.50;6216788;23;19993;-93
2024/01/29 03:28:31;;;;;;;13.70;6.03;;;;;;;1.35;100.00;96102.44;6216875;23;19997;-91
2024/01/29 03:30:57;;;;;;;18.75;6.82;;;;;;;1.47;100.00;96101.09;6192285;23;20001;-92
2024/01/29 03:33:25;;;;;;;14.63;6.28;;;;;;;1.44;100.00;96104.03;6192144;23;20008;-92
2024/01/29 03:35:50;;;;;;;14.27;6.35;;;;;;;1.33;100.00;96107.75;6218275;23;20003;-92
2024/01/29 03:38:16;;;;;;;10.90;5.18;;;;;;;1.36;100.00;96098.88;6216611;23;20001;-92
2024/01/29 03:40:41;;;;;;;12.88;5.28;;;;;;;1.44;100.00;96101.44;6216710;23;19996;-93
2024/01/29 03:43:09;;;;;;;15.18;5.95;;;;;;;1.44;100.00;96095.47;6216366;23;19993;-92
2024/01/29 03:45:35;;;;;;;12.25;5.60;;;;;;;1.36;100.00;96102.28;6191897;23;19992;-92
2024/01/29 03:48:00;;;;;;;13.98;5.78;;;;;;;1.32;100.00;96095.03;6216392;23;19996;-93
2024/01/29 03:50:28;;;;;;;13.98;6.10;;;;;;;1.33;100.00;96091.47;6192093;23;19996;-92
2024/01/29 03:52:53;;;;;;;13.68;6.10;;;;;;;1.56;100.00;96091.53;6216463;23;20012;-92
2024/01/29 03:55:21;;;;;;;15.10;6.10;;;;;;;1.55;100.00;96087.34;6192132;23;20413;-91
2024/01/29 03:57:47;;;;;;;16.00;5.60;;;;;;;1.69;100.00;96083.25;6216601;23;20096;-92
2024/01/29 04:00:15;;;;;;;13.05;5.47;;;;;;;1.85;100.00;96090.13;6216381;23;19996;-92
2024/01/29 04:02:48;;;;;;;15.52;5.63;;;;;;;1.80;100.00;96080.28;6191924;23;20001;-93
2024/01/29 04:05:16;;;;;;;14.63;5.47;;;;;;;1.69;100.00;96084.06;6216619;23;20007;-91
2024/01/29 04:07:52;;;;;;;15.05;5.70;;;;;;;1.81;100.00;96083.69;6192379;23;20001;-92
2024/01/29 04:10:20;;;;;;;14.68;5.93;;;;;;;1.66;100.00;96078.41;6193568;23;20087;-93
2024/01/29 04:12:46;;;;;;;13.00;5.35;;;;;;;1.59;100.00;96070.53;6216310;23;20461;-92
2024/01/29 04:15:11;;;;;;;12.32;5.70;;;;;;;1.55;100.00;96074.44;6216256;23;20036;-92
2024/01/29 04:17:37;;;;;;;12.48;5.43;;;;;;;1.43;100.00;96068.03;6216308;23;20414;-92
2024/01/29 04:20:14;;;;;;;13.95;5.32;;;;;;;1.29;100.00;96079.84;6216509;23;20000;-93
2024/01/29 04:22:42;;;;;;;15.35;5.68;;;;;;;1.39;100.00;96076.09;6193311;23;20046;-91
2024/01/29 04:25:10;;;;;;;11.25;5.05;;;;;;;1.22;100.00;96079.69;6192018;23;20083;-92
2024/01/29 04:27:35;;;;;;;12.30;5.38;;;;;;;1.25;100.00;96080.16;6216203;23;20020;-92
2024/01/29 04:30:02;;;;;;;16.27;6.35;;;;;;;0.98;100.00;96082.16;6191370;23;20012;-93
2024/01/29 04:32:31;;;;;;;16.08;5.65;;;;;;;0.92;100.00;96079.44;6191738;23;20007;-92
2024/01/29 04:34:57;;;;;;;13.85;6.15;;;;;;;0.96;100.00;96078.94;6192098;23;20426;-91
2024/01/29 04:37:24;;;;;;;15.75;6.28;;;;;;;1.12;100.00;96078.13;6191694;23;20004;-92
2024/01/29 04:39:50;;;;;;;13.65;6.32;;;;;;;1.18;100.00;96083.59;6216137;23;20005;-91
2024/01/29 04:42:18;;;;;;;12.45;5.50;;;;;;;1.16;100.00;96081.19;6191659;23;20028;-90
2024/01/29 04:44:46;;;;;;;14.38;5.97;;;;;;;1.42;100.00;96072.38;6191585;23;20001;-92
2024/01/29 04:47:11;;;;;;;15.60;5.47;;;;;;;1.27;100.00;96082.59;6215952;23;20006;-92
2024/01/29 04:49:50;;;;;;;13.65;5.22;;;;;;;1.39;100.00;96081.28;6191117;23;20000;-92
2024/01/29 04:52:15;;;;;;;14.23;6.25;;;;;;;1.44;100.00;96075.63;6191230;23;20012;-91
2024/01/29 04:54:41;;;;;;;13.60;6.03;;;;;;;1.57;100.00;96075.06;6215988;23;20068;-90
2024/01/29 04:57:06;;;;;;;12.32;5.25;;;;;;;1.53;100.00;96081.56;6218054;23;19997;-91
2024/01/29 04:59:42;;;;;;;;;;;;;;;;;;;;;
2024/01/29 05:02:08;;;;;;;14.30;6.07;;;;;;;1.39;100.00;96077.88;6218307;23;20079;-92
2024/01/29 05:04:35;;;;;;;13.45;5.72;;;;;;;1.31;100.00;96080.50;6193182;23;20064;-92
2024/01/29 05:07:03;;;;;;;15.73;6.07;;;;;;;1.26;100.00;96084.38;6193788;23;20012;-92
2024/01/29 05:09:31;;;;;;;19.10;6.22;;;;;;;1.22;100.00;96085.69;6219487;23;20001;-93
2024/01/29 05:12:06;;;;;;;;;;;;;;;;;;;;;
2024/01/29 05:14:34;;;;;;;20.95;6.60;;;;;;;1.26;100.00;96089.53;6220415;23;20450;-92
2024/01/29 05:17:02;;;;;;;18.88;7.15;;;;;;;1.05;100.00;96095.22;6218089;23;19996;-92
2024/01/29 05:19:40;;;;;;;;;;;;;;;;;;;;;
2024/01/29 05:22:08;;;;;;;17.38;7.22;;;;;;;1.11;100.00;96097.16;6220742;23;20344;-92
2024/01/29 05:24:41;;;;;;;16.20;6.68;;;;;;;1.26;100.00;96105.03;6193931;23;20009;-95
2024/01/29 05:27:09;;;;;;;17.58;6.80;;;;;;;1.02;100.00;96102.50;6219933;23;20000;-93
2024/01/29 05:29:34;;;;;;;15.35;6.70;;;;;;;1.16;100.00;96101.03;6194708;23;20123;-94
2024/01/29 05:32:02;;;;;;;16.95;6.25;;;;;;;1.14;100.00;96101.16;6217531;23;20318;-93
2024/01/29 05:34:28;;;;;;;14.60;6.38;;;;;;;1.11;100.00;96101.50;6195200;23;20088;-93
2024/01/29 05:36:53;;;;;;;14.43;5.13;;;;;;;1.14;100.00;96101.16;6196981;23;19996;-95
2024/01/29 05:39:22;;;;;;;13.45;5.32;;;;;;;1.16;100.00;96109.59;6198401;23;20007;-94
2024/01/29 05:41:48;;;;;;;13.98;5.95;;;;;;;1.29;100.00;96110.81;6226039;23;20055;-95
2024/01/29 05:44:21;;;;;;;14.77;5.70;;;;;;;1.35;100.00;96105.00;6193004;23;20005;-89
2024/01/29 05:46:53;;;;;;;12.35;5.20;;;;;;;1.31;100.00;96099.38;6218413;23;20016;-92
2024/01/29 05:49:19;;;;;;;13.10;5.35;;;;;;;1.32;100.00;96107.94;6194743;23;20000;-91
2024/01/29 05:51:54;;;;;;;;;;;;;;;;;;;;;
2024/01/29 05:54:20;;;;;;;15.45;5.88;;;;;;;1.23;100.00;96107.94;6218559;23;20180;-93
2024/01/29 05:56:46;;;;;;;12.65;5.32;;;;;;;1.31;100.00;96111.50;6194928;23;20413;-92
2024/01/29 05:59:12;;;;;;;11.25;5.38;;;;;;;1.36;100.00;96122.94;6194846;23;20009;-91
2024/01/29 06:01:40;;;;;;;18.17;6.05;;;;;;;1.19;100.00;96116.19;6193194;23;20000;-92
2024/01/29 06:04:06;;;;;;;9.15;4.15;;;;;;;1.44;100.00;96114.34;6193211;23;20031;-92
2024/01/29 06:06:36;;;;;;;10.57;4.65;;;;;;;1.41;100.00;96112.91;6192884;23;20310;-93
2024/01/29 06:09:05;;;;;;;10.25;3.78;;;;;;;1.39;100.00;96122.59;6217392;23;20058;-91
2024/01/29 06:11:31;;;;;;;9.38;4.18;;;;;;;1.30;100.00;96109.88;6192481;23;20091;-93
2024/01/29 06:13:59;;;;;;;12.32;5.63;;;;;;;1.30;100.00;96113.25;6192580;23;20004;-91
2024/01/29 06:16:25;;;;;;;10.77;5.05;;;;;;;1.23;100.00;96117.47;6217684;23;20055;-92
2024/01/29 06:19:01;;;;;;;12.00;4.60;;;;;;;1.13;100.00;96110.72;6192747;23;20008;-91
2024/01/29 06:21:36;;;;;;;;;;;;;;;;;;;;;
2024/01/29 06:24:05;;;;;;;15.75;4.70;;;;;;;1.40;100.00;96115.66;6217642;23;20028;-90
2024/01/29 06:26:40;;;;;;;;;;;;;;;;;;;;;
2024/01/29 06:29:06;;;;;;;7.38;3.80;;;;;;;1.18;100.00;96112.81;6217427;23;20107;-92
2024/01/29 06:31:34;;;;;;;10.35;4.50;;;;;;;1.21;100.00;96121.97;6192918;23;20004;-92
2024/01/29 06:34:07;;;;;;;11.35;4.30;;;;;;;1.26;100.00;96120.50;6193012;23;20032;-92
2024/01/29 06:36:35;;;;;;;9.02;3.85;;;;;;;1.28;100.00;96128.09;6193834;23;19997;-92
2024/01/29 06:39:03;;;;;;;10.30;3.95;;;;;;;1.10;100.00;96121.38;6192681;23;20104;-94
2024/01/29 06:41:31;;;;;;;7.10;3.25;;;;;;;1.23;100.00;96114.91;6200035;23;20000;-93
2024/01/29 06:43:59;;;;;;;10.90;4.40;;;;;;;1.29;100.00;96121.16;6198173;23;20001;-94
2024/01/29 06:46:25;;;;;;;11.15;3.90;;;;;;;1.11;100.00;96128.16;6225874;23;20012;-94
2024/01/29 06:48:52;;;;;;;8.38;3.90;;;;;;;1.02;100.00;96123.94;6198835;23;20087;-94
2024/01/29 06:51:20;;;;;;;5.72;2.83;;;;;;;1.11;100.00;96122.97;6217901;23;20004;-94
2024/01/29 06:53:48;;;;;;;12.95;4.75;;;;;;;1.13;100.00;96130.53;6219635;23;20011;-94
2024/01/29 06:56:15;;;;;;;9.50;3.90;;;;;;;1.21;100.00;96132.31;6194740;23;20001;-95
2024/01/29 06:58:51;;;;;;;;;;;;;;;;;;;;;
2024/01/29 07:01:22;;;;;;;7.78;3.92;;;;;;;1.23;100.00;96133.75;6218175;23;20063;-95
2024/01/29 07:03:52;;;;;;;11.73;4.47;;;;;;;1.27;100.00;96142.78;6194182;23;20007;-95
2024/01/29 07:06:20;;;;;;;9.73;4.35;;;;;;;1.45;100.00;96136.63;6219252;23;20008;-94
2024/01/29 07:09:01;;;;;;;10.27;3.83;;;;;;;1.55;100.00;96132.06;6217526;23;20005;-93
2024/01/29 07:11:29;;;;;;;11.40;4.20;;;;;;;1.74;100.00;96122.31;6192746;23;20407;-95
2024/01/29 07:13:55;;;;;;;9.93;3.58;;;;;;;1.79;100.00;96134.72;6216950;23;20310;-93
2024/01/29 07:16:25;;;;;;;9.32;4.20;;;;;;;1.73;100.00;96136.22;6192469;23;20032;-93
2024/01/29 07:18:50;;;;;;;9.88;4.22;;;;;;;2.06;100.00;96135.25;6216746;23;20012;-92
2024/01/29 07:21:16;;;;;;;9.38;3.83;;;;;;;2.22;100.00;96136.97;6216700;23;19997;-94
2024/01/29 07:23:54;;;;;;;;;;;;;;;;;;;;;
2024/01/29 07:26:32;;;;;;;;;;;;;;;;;;;;;
2024/01/29 07:28:58;;;;;;;12.25;4.55;;;;;;;2.21;100.00;96143.09;6217568;23;20016;-93
2024/01/29 07:31:26;;;;;;;12.52;4.10;;;;;;;2.26;100.00;96126.09;6217037;23;20043;-94
2024/01/29 07:33:51;;;;;;;10.75;4.55;;;;;;;2.39;100.00;96135.09;6216739;23;20046;-93
2024/01/29 07:36:17;;;;;;;10.43;4.18;;;;;;;2.55;100.00;96123.81;6192076;23;20036;-92
2024/01/29 07:38:52;;;;;;;12.93;4.80;;;;;;;2.64;100.00;96129.72;6191837;23;20031;-93
2024/01/29 07:41:18;;;;;;;9.82;4.63;;;;;;;2.76;100.00;96132.72;6194028;23;20001;-94
2024/01/29 07:43:56;;;;;;;;;;;;;;;;;;;;;
2024/01/29 07:46:28;;;;;;;11.02;4.38;;;;;;;2.81;100.00;96126.06;6217138;23;20039;-93
2024/01/29 07:49:03;;;;;;;10.30;4.57;;;;;;;3.01;100.00;96137.69;6193505;23;20019;-93
2024/01/29 07:51:29;;;;;;;10.00;4.50;;;;;;;3.17;100.00;96136.75;6194172;23;20020;-94
2024/01/29 07:54:01;;;;;;;12.15;4.03;;;;;;;3.27;100.00;96136.47;6190979;23;20007;-93
2024/01/29 07:56:28;;;;;;;7.95;4.10;;;;;;;3.48;100.00;96140.97;6192066;23;20429;-94
2024/01/29 07:59:06;;;;;;;;;;;;;;;;;;;;;
2024/01/29 08:01:32;;;;;;;8.75;4.00;;;;;;;3.68;100.00;96143.84;6215746;23;20076;-93
2024/01/29 08:03:59;;;;;;;10.00;4.40;;;;;;;3.66;100.00;96140.63;6216056;23;20406;-93
2024/01/29 08:06:26;;;;;;;11.55;4.88;;;;;;;3.80;100.00;96139.81;6192261;23;20008;-94
2024/01/29 08:08:52;;;;;;;12.68;4.18;;;;;;;3.84;100.00;96142.03;6191698;23;19993;-94
2024/01/29 08:11:20;;;;;;;11.80;4.70;;;;;;;3.91;100.00;96140.34;6191356;23;20046;-94
2024/01/29 08:13:47;;;;;;;8.38;3.97;;;;;;;4.06;100.00;96133.34;6191000;23;20429;-94
2024/01/29 08:16:13;;;;;;;12.80;5.45;;;;;;;4.08;100.00;96139.16;6217321;23;19996;-93
2024/01/29 08:18:46;;;;;;;10.15;4.22;;;;;;;4.18;100.00;96141.44;6191687;23;20071;-93
2024/01/29 08:21:11;;;;;;;12.00;4.55;;;;;;;4.07;100.00;96136.72;6194141;23;20004;-93
2024/01/29 08:23:39;;;;;;;8.80;4.30;;;;;;;4.15;100.00;96128.84;6190578;23;20027;-93
2024/01/29 08:26:07;;;;;;;13.48;4.88;;;;;;;4.20;100.00;96136.88;6193099;23;20072;-93
2024/01/29 08:28:33;;;;;;;11.38;4.63;;;;;;;4.22;100.00;96136.69;6194146;23;20011;-93
2024/01/29 08:30:59;;;;;;;10.27;4.88;;;;;;;4.36;100.00;96132.44;6218032;23;19996;-93
2024/01/29 08:33:27;;;;;;;11.10;5.43;;;;;;;4.34;100.00;96135.25;6192320;23;20012;-94
2024/01/29 08:35:55;;;;;;;10.20;4.70;;;;;;;4.36;100.00;96125.47;6193925;23;20090;-93
2024/01/29 08:38:30;;;;;;;12.73;4.70;;;;;;;4.45;100.00;96133.94;6219717;23;20005;-94
2024/01/29 08:40:56;;;;;;;11.38;4.63;;;;;;;4.52;100.00;96140.03;6196317;23;19996;-93
2024/01/29 08:43:23;;;;;;;8.88;4.40;;;;;;;4.58;100.00;96140.25;6217199;23;19989;-93
2024/01/29 08:45:51;;;;;;;9.13;4.47;;;;;;;4.56;99.83;96143.03;6193677;23;20004;-94
2024/01/29 08:48:19;;;;;;;10.10;4.70;;;;;;;4.52;100.00;96134.00;6193310;23;19997;-94
2024/01/29 08:50:45;;;;;;;10.00;5.10;;;;;;;4.51;100.00;96138.38;6220353;23;20020;-94
2024/01/29 08:53:18;;;;;;;13.10;5.13;;;;;;;4.62;100.00;96142.31;6130619;23;1479184;-93
2024/01/29 08:55:53;;;;;;;;;;;;;;;;;;;;;
2024/01/29 08:58:28;;;;;;;11.20;4.57;;;;;;;4.64;100.00;96150.72;6220263;23;20023;-92
2024/01/29 09:00:56;;;;;;;10.25;4.22;;;;;;;4.79;97.57;96145.44;6195934;23;20005;-92
2024/01/29 09:03:32;;;;;;;;;;;;;;;;;;;;;
2024/01/29 09:05:58;;;;;;;9.75;3.85;;;;;;;4.80;98.80;96136.66;6220209;23;20036;-93
2024/01/29 09:08:31;;;;;;;7.97;4.10;;;;;;;4.74;99.07;96132.22;6194752;23;20000;-94
2024/01/29 09:11:06;;;;;;;;;;;;;;;;;;;;;
2024/01/29 09:13:32;;;;;;;10.43;4.50;;;;;;;4.88;100.00;96142.72;6219777;23;20023;-91
2024/01/29 09:16:05;;;;;;;7.63;4.15;;;;;;;4.91;100.00;96134.56;6194932;23;20000;-93
2024/01/29 09:18:30;;;;;;;8.20;4.38;;;;;;;5.06;100.00;96140.47;6196346;23;19997;-92
2024/01/29 09:21:06;;;;;;;;;;;;;;;;;;;;;
2024/01/29 09:23:31;;;;;;;10.95;4.80;;;;;;;5.32;100.00;96133.06;6220075;23;20459;-93
2024/01/29 09:25:59;;;;;;;15.02;5.85;;;;;;;5.44;93.08;96141.13;6194302;23;20064;-93
2024/01/29 09:28:30;;;;;;;8.60;4.35;;;;;;;5.53;98.44;96147.81;6194570;23;20038;-93
2024/01/29 09:30:57;;;;;;;11.48;4.25;;;;;;;5.72;96.76;96148.88;6194872;23;20402;-92
2024/01/29 09:33:23;;;;;;;8.80;4.40;;;;;;;5.63;92.27;96155.25;6194585;23;20001;-93
2024/01/29 09:35:48;;;;;;;9.57;4.47;;;;;;;5.85;93.50;96152.56;6194108;23;20035;-91
2024/01/29 09:38:15;;;;;;;8.65;4.30;;;;;;;5.87;95.46;96153.16;6194742;23;20083;-92
2024/01/29 09:40:44;;;;;;;10.60;5.13;;;;;;;5.89;93.44;96153.78;6195056;23;20031;-93
2024/01/29 09:43:11;;;;;;;10.50;4.43;;;;;;;5.96;91.51;96153.81;6195092;23;20003;-94
2024/01/29 09:45:44;;;;;;;11.77;5.43;;;;;;;5.97;89.21;96155.44;6194506;23;20011;-92
2024/01/29 09:48:12;;;;;;;13.32;6.03;;;;;;;6.04;85.81;96157.09;6219915;23;20001;-93
2024/01/29 09:50:41;;;;;;;14.93;5.95;;;;;;;6.07;85.79;96155.88;6196194;23;20055;-93
2024/01/29 09:53:10;;;;;;;10.38;4.78;;;;;;;6.14;90.78;96159.34;6195477;23;20040;-93
2024/01/29 09:55:35;;;;;;;10.85;4.93;;;;;;;6.23;92.72;96149.56;6196724;23;20008;-94
2024/01/29 09:58:01;;;;;;;10.20;4.35;;;;;;;6.45;95.79;96162.41;6195316;23;20008;-94
2024/01/29 10:00:31;;;;;;;9.20;4.10;;;;;;;6.56;93.01;96156.63;6195213;23;20059;-94
2024/01/29 10:03:01;;;;;;;10.68;4.72;;;;;;;6.65;87.67;96159.84;6220446;23;20053;-93
2024/01/29 10:05:33;;;;;;;8.95;4.43;;;;;;;6.68;88.58;96156.06;6218705;23;20001;-93
2024/01/29 10:08:09;;;;;;;;;;;;;;;;;;;;;
2024/01/29 10:10:44;;;;;;;;;;;;;;;;;;;;;
2024/01/29 10:13:13;;;;;;;8.50;4.38;;;;;;;6.87;86.02;96164.91;6225848;23;20031;-95
2024/01/29 10:15:52;;;;;;;;;;;;;;;;;;;;;
2024/01/29 10:18:23;;;;;;;9.73;4.43;;;;;;;6.95;86.16;96156.09;6229536;23;20375;-95
2024/01/29 10:21:05;;;;;;;12.18;5.05;;;;;;;7.04;90.28;96144.50;6201662;23;20433;-94
2024/01/29 10:23:40;;;;;;;12.13;5.45;;;;;;;7.18;90.10;96159.13;6201584;23;20028;-94
2024/01/29 10:26:13;;;;;;;9.43;4.75;;;;;;;7.25;87.34;96150.50;6227060;23;20030;-95
2024/01/29 10:28:41;;;;;;;9.00;4.72;;;;;;;7.29;89.58;96147.28;6222778;23;20046;-94
2024/01/29 10:31:07;;;;;;;10.77;5.25;;;;;;;7.33;89.13;96151.06;6224481;23;20087;-93
2024/01/29 10:33:40;;;;;;;12.60;5.63;;;;;;;7.48;93.60;96153.47;6196988;23;19996;-93
2024/01/29 10:36:07;;;;;;;12.15;5.22;;;;;;;7.54;88.56;96151.88;6222962;23;20023;-94
2024/01/29 10:42:03;;;;;;;15.07;5.75;;;;;;;7.67;92.59;96145.81;6224169;23;19996;-95
2024/01/29 10:44:42;;;;;;;13.57;5.50;;;;;;;7.75;90.99;96145.59;6202008;23;20000;-94
2024/01/29 10:47:20;;;;;;;13.65;5.80;;;;;;;7.74;87.89;96146.59;6203935;23;20032;-95
2024/01/29 10:49:48;;;;;;;16.92;6.20;;;;;;;7.70;88.20;96150.63;6196879;23;20284;-94
2024/01/29 10:52:23;;;;;;;12.48;5.70;;;;;;;7.83;87.78;96146.38;6223069;23;20032;-94
2024/01/29 10:54:58;;;;;;;;;;;;;;;;;;;;;
2024/01/29 10:57:25;;;;;;;13.43;5.53;;;;;;;8.00;85.20;96146.72;6220219;23;20016;-93
2024/01/29 10:59:54;;;;;;;15.07;6.55;;;;;;;8.03;84.71;96146.31;6196216;23;20083;-94
2024/01/29 11:02:20;;;;;;;15.18;6.22;;;;;;;8.12;83.59;96139.84;6193450;23;19997;-94
2024/01/29 11:04:48;;;;;;;16.30;6.53;;;;;;;8.17;82.64;96134.00;6192908;23;20075;-95
2024/01/29 11:07:25;;;;;;;15.02;6.15;;;;;;;8.12;81.60;96134.63;6218383;23;20020;-93
2024/01/29 11:10:23;;;;;;;16.15;6.38;;;;;;;8.17;81.58;96131.38;6217169;23;20379;-94
2024/01/29 11:12:59;;;;;;;15.10;6.18;;;;;;;8.20;81.47;96129.16;6183277;23;20103;-94
2024/01/29 11:15:26;;;;;;;22.83;8.35;;;;;;;8.23;78.81;96133.16;6195970;23;20000;-95
2024/01/29 11:17:52;;;;;;;23.92;8.85;;;;;;;8.24;80.04;96128.72;6192459;23;20307;-95
2024/01/29 11:20:28;;;;;;;;;;;;;;;;;;;;;
2024/01/29 11:22:59;;;;;;;20.55;8.98;;;;;;;8.38;84.19;96121.66;6218421;23;20057;-94
2024/01/29 11:25:35;;;;;;;19.73;8.13;;;;;;;8.45;81.03;96125.81;6195187;23;20000;-94
2024/01/29 11:28:02;;;;;;;22.25;7.95;;;;;;;8.48;81.96;96122.00;6217610;23;20421;-94
2024/01/29 11:30:30;;;;;;;20.42;8.55;;;;;;;8.44;82.51;96121.63;6192368;23;20011;-94
2024/01/29 11:33:13;;;;;;;21.42;9.20;;;;;;;8.55;83.22;96116.78;6193105;23;19996;-93
2024/01/29 11:35:41;;;;;;;25.13;8.38;;;;;;;8.68;82.55;96114.06;6194295;23;20000;-95
2024/01/29 11:38:19;;;;;;;21.02;8.82;;;;;;;8.78;79.14;96105.75;6217499;23;19997;-94
2024/01/29 11:40:46;;;;;;;23.27;9.52;;;;;;;8.87;79.64;96103.66;6194470;23;20023;-94
2024/01/29 11:43:19;;;;;;;20.13;8.60;;;;;;;8.90;77.57;96109.28;6192607;23;20001;-94
2024/01/29 11:45:50;;;;;;;26.15;9.43;;;;;;;8.95;77.69;96108.63;6192540;23;20322;-95
2024/01/29 11:48:18;;;;;;;22.33;9.07;;;;;;;8.95;77.42;96105.22;6192527;23;20003;-93
2024/01/29 11:50:49;;;;;;;21.52;8.80;;;;;;;9.03;77.77;96107.56;6217666;23;20005;-95
2024/01/29 11:53:19;;;;;;;21.45;9.13;;;;;;;9.02;76.23;96101.53;6191723;23;20027;-94
2024/01/29 11:55:47;;;;;;;23.38;10.15;;;;;;;9.16;76.78;96107.44;6192746;23;20091;-93
2024/01/29 11:58:14;;;;;;;20.77;8.73;;;;;;;9.27;77.31;96102.53;6218057;23;20000;-94
2024/01/29 12:00:46;;;;;;;24.58;9.65;;;;;;;9.34;78.55;96092.81;6192159;23;20000;-94
2024/01/29 12:03:21;;;;;;;23.75;10.23;;;;;;;9.44;76.12;96093.09;6216407;23;20000;-95
2024/01/29 12:05:49;;;;;;;27.75;10.95;;;;;;;9.50;76.73;96090.66;6192779;23;20032;-94
2024/01/29 12:08:16;;;;;;;26.02;11.38;;;;;;;9.49;76.63;96092.44;6192603;23;20301;-94
2024/01/29 12:10:44;;;;;;;27.70;10.93;;;;;;;9.50;75.60;96098.50;6217200;23;20082;-96
2024/01/29 12:13:28;;;;;;;24.83;10.77;;;;;;;9.47;74.35;96092.69;6192203;23;20000;-94
2024/01/29 12:15:53;;;;;;;;;;;;;;;9.51;74.88;96097.47;6192201;23;20318;-93
2024/01/29 12:18:28;;;;;;;32.00;12.80;;;;;;;9.35;75.99;96094.41;6192300;23;19903;-94
2024/01/29 12:20:54;;;;;;;29.77;13.00;;;;;;;9.41;76.84;96087.53;6217789;23;19993;-94